createdAt,value
2019-01-25T00:01:38.317Z,120.43
2019-01-25T00:04:45.009Z,109.47
2019-01-25T00:07:51.892Z,118.60
2019-01-25T00:10:59.262Z,125.37
2019-01-25T00:14:06.501Z,120.00
2019-01-25T00:17:13.342Z,124.00
2019-01-25T00:20:20.068Z,103.03
2019-01-25T00:23:26.798Z,113.77
2019-01-25T00:26:33.451Z,105.33
2019-01-25T00:29:41.972Z,110.43
2019-01-25T00:32:49.475Z,95.90
2019-01-25T00:35:56.031Z,114.27
2019-01-25T00:39:04.487Z,107.87
2019-01-25T00:42:11.223Z,115.37
2019-01-25T00:45:18.284Z,109.33
2019-01-25T00:48:25.165Z,119.23
2019-01-25T00:51:36.447Z,111.43
2019-01-25T00:54:43.463Z,105.17
2019-01-25T00:57:50.172Z,107.60
2019-01-25T01:00:56.711Z,128.60
2019-01-25T01:04:03.382Z,118.27
2019-01-25T01:07:10.199Z,103.70
2019-01-25T01:10:17.210Z,110.27
2019-01-25T01:13:24.080Z,120.00
2019-01-25T01:16:31.711Z,116.33
2019-01-25T01:19:38.386Z,125.30
2019-01-25T01:22:45.757Z,109.00
2019-01-25T01:25:52.567Z,101.23
2019-01-25T01:28:59.515Z,107.70
2019-01-25T01:32:06.230Z,113.63
2019-01-25T01:35:13.638Z,105.87
2019-01-25T01:38:20.754Z,130.23
2019-01-25T01:41:27.316Z,100.50
2019-01-25T01:44:34.527Z,112.57
2019-01-25T01:47:41.086Z,121.80
2019-01-25T01:50:48.477Z,110.87
2019-01-25T01:53:55.321Z,113.40
2019-01-25T01:57:01.924Z,109.00
2019-01-25T02:00:13.315Z,103.33
2019-01-25T02:03:19.872Z,110.90
2019-01-25T02:06:26.880Z,122.07
2019-01-25T02:09:33.262Z,111.17
2019-01-25T02:12:41.082Z,118.70
2019-01-25T02:15:48.037Z,103.60
2019-01-25T02:18:54.840Z,101.63
2019-01-25T02:22:01.267Z,119.83
2019-01-25T02:25:07.913Z,121.40
2019-01-25T02:28:14.730Z,107.00
2019-01-25T02:31:21.415Z,121.40
2019-01-25T02:34:27.777Z,115.27
2019-01-25T02:37:34.790Z,124.70
2019-01-25T02:40:41.519Z,119.27
2019-01-25T02:43:48.075Z,139.27
2019-01-25T02:46:54.812Z,135.87
2019-01-25T02:50:01.409Z,137.20
2019-01-25T02:53:07.816Z,120.40
2019-01-25T02:56:14.699Z,124.30
2019-01-25T02:59:21.539Z,118.87
2019-01-25T03:02:28.441Z,125.00
2019-01-25T03:05:35.082Z,120.97
2019-01-25T03:08:41.665Z,126.30
2019-01-25T03:11:48.418Z,125.27
2019-01-25T03:14:54.989Z,122.57
2019-01-25T03:18:01.534Z,125.00
2019-01-25T03:21:10.025Z,128.70
2019-01-25T03:24:16.668Z,118.50
2019-01-25T03:27:23.797Z,133.03
2019-01-25T03:30:31.424Z,107.83
2019-01-25T03:33:38.402Z,120.10
2019-01-25T03:36:45.057Z,125.03
2019-01-25T03:39:51.651Z,142.53
2019-01-25T03:42:58.340Z,123.47
2019-01-25T03:46:04.983Z,115.13
2019-01-25T03:49:12.422Z,119.47
2019-01-25T03:52:19.067Z,123.73
2019-01-25T03:55:25.961Z,123.67
2019-01-25T03:58:32.625Z,119.10
2019-01-25T04:01:39.775Z,124.70
2019-01-25T04:04:46.742Z,117.63
2019-01-25T04:07:53.434Z,116.13
2019-01-25T04:11:03.923Z,123.93
2019-01-25T04:14:08.374Z,124.97
2019-01-25T04:17:14.739Z,120.07
2019-01-25T04:20:21.516Z,111.27
2019-01-25T04:23:28.470Z,119.83
2019-01-25T04:26:35.223Z,131.13
2019-01-25T04:29:41.977Z,128.70
2019-01-25T04:32:48.784Z,131.80
2019-01-25T04:35:55.183Z,128.70
2019-01-25T04:39:01.997Z,132.83
2019-01-25T04:42:09.859Z,117.40
2019-01-25T04:45:17.993Z,124.87
2019-01-25T04:48:24.846Z,124.47
2019-01-25T04:51:31.491Z,119.73
2019-01-25T04:54:38.240Z,114.87
2019-01-25T04:57:44.667Z,121.70
2019-01-25T05:00:51.203Z,137.40
2019-01-25T05:03:57.924Z,124.00
2019-01-25T05:07:05.483Z,139.97
2019-01-25T05:10:12.387Z,130.53
2019-01-25T05:13:19.715Z,113.73
2019-01-25T05:16:26.176Z,119.00
2019-01-25T05:19:39.183Z,118.30
2019-01-25T05:22:45.923Z,125.70
2019-01-25T05:25:52.750Z,121.10
2019-01-25T05:28:59.619Z,118.00
2019-01-25T05:32:07.150Z,144.40
2019-01-25T05:35:14.156Z,146.53
2019-01-25T05:38:20.932Z,173.97
2019-01-25T05:41:28.760Z,136.47
2019-01-25T05:44:35.413Z,152.97
2019-01-25T05:47:42.147Z,127.20
2019-01-25T05:50:48.942Z,118.23
2019-01-25T05:53:55.513Z,133.23
2019-01-25T05:57:02.152Z,130.90
2019-01-25T06:00:13.488Z,129.73
2019-01-25T06:03:19.793Z,134.80
2019-01-25T06:06:26.074Z,152.17
2019-01-25T06:09:34.778Z,142.60
2019-01-25T06:12:45.827Z,134.33
2019-01-25T06:15:52.959Z,157.57
2019-01-25T06:18:59.679Z,136.67
2019-01-25T06:22:06.928Z,132.67
2019-01-25T06:25:13.916Z,149.20
2019-01-25T06:28:20.428Z,152.27
2019-01-25T06:31:27.291Z,147.97
2019-01-25T06:34:33.663Z,142.87
2019-01-25T06:37:40.539Z,147.53
2019-01-25T06:40:47.277Z,143.73
2019-01-25T06:43:53.947Z,135.43
2019-01-25T06:47:00.643Z,121.63
2019-01-25T06:50:07.397Z,136.57
2019-01-25T06:53:14.269Z,138.83
2019-01-25T06:56:21.241Z,128.63
2019-01-25T06:59:35.285Z,136.13
2019-01-25T07:02:42.863Z,123.60
2019-01-25T07:05:50.029Z,125.37
2019-01-25T07:08:56.849Z,130.67
2019-01-25T07:12:03.331Z,127.97
2019-01-25T07:15:11.120Z,124.23
2019-01-25T07:18:18.063Z,128.60
2019-01-25T07:21:24.854Z,127.27
2019-01-25T07:24:32.100Z,122.07
2019-01-25T07:27:39.385Z,121.83
2019-01-25T07:30:46.405Z,124.10
2019-01-25T07:33:53.149Z,132.43
2019-01-25T07:36:59.677Z,120.43
2019-01-25T07:40:06.811Z,122.50
2019-01-25T07:43:13.869Z,122.37
2019-01-25T07:46:21.020Z,124.20
2019-01-25T07:49:27.540Z,122.93
2019-01-25T07:52:34.357Z,118.30
2019-01-25T07:55:41.057Z,129.40
2019-01-25T07:58:48.077Z,118.53
2019-01-25T08:01:56.069Z,140.23
2019-01-25T08:05:03.115Z,130.40
2019-01-25T08:08:09.909Z,131.47
2019-01-25T08:11:16.514Z,123.90
2019-01-25T08:14:23.353Z,133.23
2019-01-25T08:17:32.065Z,128.10
2019-01-25T08:20:38.580Z,129.33
2019-01-25T08:23:45.405Z,127.13
2019-01-25T08:26:51.803Z,140.90
2019-01-25T08:29:58.507Z,129.77
2019-01-25T08:33:05.532Z,142.10
2019-01-25T08:36:12.462Z,122.53
2019-01-25T08:39:19.154Z,138.27
2019-01-25T08:42:25.860Z,141.93
2019-01-25T08:45:32.887Z,139.07
2019-01-25T08:48:39.565Z,117.90
2019-01-25T08:51:46.795Z,129.40
2019-01-25T08:54:53.172Z,138.07
2019-01-25T08:58:00.111Z,158.67
2019-01-25T09:01:08.290Z,143.60
2019-01-25T09:04:14.643Z,139.60
2019-01-25T09:07:21.503Z,140.13
2019-01-25T09:10:28.206Z,143.03
2019-01-25T09:13:35.327Z,164.60
2019-01-25T09:16:42.495Z,139.47
2019-01-25T09:19:48.874Z,165.90
2019-01-25T09:22:55.831Z,148.90
2019-01-25T09:26:03.134Z,132.37
2019-01-25T09:29:09.664Z,145.60
2019-01-25T09:32:16.983Z,171.13
2019-01-25T09:35:24.735Z,148.07
2019-01-25T09:38:31.564Z,142.00
2019-01-25T09:41:39.562Z,134.53
2019-01-25T09:44:46.361Z,139.70
2019-01-25T09:47:53.606Z,151.10
2019-01-25T09:51:00.642Z,140.67
2019-01-25T09:54:08.154Z,130.10
2019-01-25T09:57:15.013Z,129.20
2019-01-25T10:00:33.740Z,138.60
2019-01-25T10:03:41.137Z,122.90
2019-01-25T10:06:47.866Z,122.93
2019-01-25T10:09:54.694Z,129.57
2019-01-25T10:13:01.282Z,93.83
2019-01-25T10:16:08.267Z,101.60
2019-01-25T10:19:14.963Z,92.90
2019-01-25T10:22:21.537Z,80.67
2019-01-25T10:25:29.737Z,92.70
2019-01-25T10:28:36.860Z,85.30
2019-01-25T10:31:43.901Z,87.77
2019-01-25T10:34:50.407Z,84.90
2019-01-25T10:37:57.698Z,92.13
2019-01-25T10:41:04.438Z,82.60
2019-01-25T10:44:10.807Z,86.63
2019-01-25T10:47:17.753Z,97.03
2019-01-25T10:50:25.420Z,85.37
2019-01-25T10:53:32.278Z,76.40
2019-01-25T10:56:41.912Z,91.43
2019-01-25T10:59:48.067Z,81.10
2019-01-25T11:02:58.403Z,85.90
2019-01-25T11:06:03.090Z,84.37
2019-01-25T11:09:10.402Z,90.37
2019-01-25T11:12:17.708Z,83.03
2019-01-25T11:15:24.410Z,79.77
2019-01-25T11:18:30.780Z,90.90
2019-01-25T11:21:39.045Z,99.37
2019-01-25T11:24:45.470Z,77.17
2019-01-25T11:27:51.859Z,81.20
2019-01-25T11:30:58.789Z,80.73
2019-01-25T11:34:05.456Z,84.83
2019-01-25T11:37:13.340Z,75.07
2019-01-25T11:40:22.680Z,83.10
2019-01-25T11:43:29.606Z,77.53
2019-01-25T11:46:37.140Z,83.40
2019-01-25T11:49:45.026Z,88.13
2019-01-25T11:52:51.666Z,79.63
2019-01-25T11:55:58.258Z,74.83
2019-01-25T11:59:05.171Z,69.33
2019-01-25T12:02:13.415Z,69.37
2019-01-25T12:05:21.229Z,75.67
2019-01-25T12:08:27.923Z,86.20
2019-01-25T12:11:34.936Z,75.93
2019-01-25T12:14:42.524Z,69.20
2019-01-25T12:17:49.132Z,46.90
2019-01-25T12:20:56.613Z,48.83
2019-01-25T12:24:03.543Z,51.33
2019-01-25T12:27:10.280Z,54.00
2019-01-25T12:30:20.618Z,46.40
2019-01-25T12:33:28.081Z,41.97
2019-01-25T12:36:35.451Z,56.53
2019-01-25T12:39:42.567Z,51.37
2019-01-25T12:42:49.074Z,48.20
2019-01-25T12:45:55.676Z,52.23
2019-01-25T12:49:02.151Z,54.83
2019-01-25T12:52:10.824Z,43.30
2019-01-25T12:55:17.521Z,50.20
2019-01-25T12:58:24.536Z,46.13
2019-01-25T13:01:34.989Z,44.73
2019-01-25T13:04:39.901Z,46.80
2019-01-25T13:07:47.130Z,42.67
2019-01-25T13:10:53.722Z,48.43
2019-01-25T13:14:00.766Z,46.70
2019-01-25T13:17:07.303Z,48.30
2019-01-25T13:20:17.690Z,42.83
2019-01-25T13:23:24.522Z,39.57
2019-01-25T13:26:31.215Z,39.23
2019-01-25T13:29:38.348Z,36.97
2019-01-25T13:32:45.030Z,37.33
2019-01-25T13:35:52.142Z,39.40
2019-01-25T13:38:59.094Z,38.77
2019-01-25T13:42:06.249Z,41.47
2019-01-25T13:45:15.129Z,43.13
2019-01-25T13:48:22.238Z,40.80
2019-01-25T13:51:31.305Z,42.93
2019-01-25T13:54:38.314Z,33.87
2019-01-25T13:57:45.380Z,37.17
2019-01-25T14:00:52.201Z,35.13
2019-01-25T14:03:58.691Z,41.63
2019-01-25T14:07:04.917Z,43.57
2019-01-25T14:10:14.300Z,44.87
2019-01-25T14:13:23.359Z,34.77
2019-01-25T14:16:31.268Z,34.83
2019-01-25T14:19:38.221Z,46.27
2019-01-25T14:22:45.135Z,42.63
2019-01-25T14:25:51.994Z,41.37
2019-01-25T14:28:58.808Z,37.77
2019-01-25T14:32:05.649Z,36.13
2019-01-25T14:35:12.640Z,36.83
2019-01-25T14:38:19.704Z,36.57
2019-01-25T14:41:27.316Z,33.63
2019-01-25T14:44:34.025Z,41.70
2019-01-25T14:47:41.026Z,38.07
2019-01-25T14:50:47.654Z,51.03
2019-01-25T14:53:54.514Z,55.60
2019-01-25T14:57:01.334Z,41.87
2019-01-25T15:00:09.104Z,39.47
2019-01-25T15:03:17.294Z,47.23
2019-01-25T15:06:23.840Z,43.00
2019-01-25T15:09:31.085Z,41.97
2019-01-25T15:12:39.032Z,49.43
2019-01-25T15:15:45.873Z,44.50
2019-01-25T15:18:52.473Z,44.40
2019-01-25T15:21:59.971Z,41.43
2019-01-25T15:25:07.526Z,35.53
2019-01-25T15:28:14.442Z,38.60
2019-01-25T15:31:21.844Z,42.00
2019-01-25T15:34:28.723Z,44.23
2019-01-25T15:37:35.787Z,35.43
2019-01-25T15:40:42.516Z,44.90
2019-01-25T15:43:49.643Z,41.03
2019-01-25T15:46:57.034Z,49.30
2019-01-25T15:50:05.788Z,39.03
2019-01-25T15:53:13.363Z,30.30
2019-01-25T15:56:21.101Z,43.30
2019-01-25T15:59:27.981Z,33.87
2019-01-25T16:02:35.157Z,34.03
2019-01-25T16:05:41.932Z,34.93
2019-01-25T16:08:48.571Z,36.17
2019-01-25T16:11:55.055Z,29.80
2019-01-25T16:15:01.535Z,35.47
2019-01-25T16:18:08.200Z,36.63
2019-01-25T16:21:14.994Z,30.43
2019-01-25T16:24:22.243Z,33.27
2019-01-25T16:27:30.340Z,29.17
2019-01-25T16:30:39.116Z,38.27
2019-01-25T16:33:46.625Z,47.80
2019-01-25T16:36:55.076Z,37.37
2019-01-25T16:40:01.904Z,139.20
2019-01-25T16:43:10.998Z,152.83
2019-01-25T16:46:17.957Z,105.50
2019-01-25T16:49:24.851Z,80.10
2019-01-25T16:52:31.740Z,42.70
2019-01-25T16:55:38.536Z,35.70
2019-01-25T16:58:45.476Z,43.33
2019-01-25T17:01:53.439Z,42.60
2019-01-25T17:05:00.744Z,37.67
2019-01-25T17:08:09.271Z,26.33
2019-01-25T17:11:16.585Z,29.63
2019-01-25T17:14:23.985Z,33.43
2019-01-25T17:17:31.028Z,24.83
2019-01-25T17:20:38.528Z,34.03
2019-01-25T17:23:45.279Z,33.37
2019-01-25T17:26:52.019Z,31.33
2019-01-25T17:29:58.703Z,32.57
2019-01-25T17:33:05.912Z,29.80
2019-01-25T17:36:13.731Z,30.10
2019-01-25T17:39:22.173Z,29.27
2019-01-25T17:42:28.910Z,32.97
2019-01-25T17:45:36.059Z,30.67
2019-01-25T17:48:43.503Z,28.93
2019-01-25T17:51:51.738Z,27.33
2019-01-25T17:54:59.703Z,42.33
2019-01-25T17:58:08.276Z,35.90
2019-01-25T18:01:15.840Z,33.50
2019-01-25T18:04:23.233Z,43.90
2019-01-25T18:07:31.554Z,34.53
2019-01-25T18:10:38.898Z,38.60
2019-01-25T18:13:47.606Z,40.47
2019-01-25T18:16:55.565Z,36.37
2019-01-25T18:20:03.010Z,30.87
2019-01-25T18:23:09.719Z,39.07
2019-01-25T18:26:22.611Z,44.33
2019-01-25T18:29:51.441Z,40.33
2019-01-25T18:32:59.751Z,35.27
2019-01-25T18:36:06.949Z,37.40
2019-01-25T18:39:15.366Z,34.07
2019-01-25T18:42:24.510Z,32.97
2019-01-25T18:45:31.512Z,41.00
2019-01-25T18:48:38.956Z,32.23
2019-01-25T18:51:46.362Z,31.07
2019-01-25T18:54:52.881Z,32.60
2019-01-25T18:57:59.645Z,38.43
2019-01-25T19:01:06.385Z,41.93
2019-01-25T19:04:12.970Z,35.60
2019-01-25T19:07:19.693Z,35.97
2019-01-25T19:10:27.145Z,40.27
2019-01-25T19:13:34.405Z,33.47
2019-01-25T19:16:42.074Z,34.63
2019-01-25T19:19:49.489Z,36.30
2019-01-25T19:22:56.184Z,40.37
2019-01-25T19:26:02.862Z,39.40
2019-01-25T19:29:10.194Z,39.33
2019-01-25T19:32:16.649Z,42.20
2019-01-25T19:35:24.406Z,33.27
2019-01-25T19:38:31.267Z,42.07
2019-01-25T19:41:40.831Z,43.90
2019-01-25T19:44:48.219Z,40.63
2019-01-25T19:47:55.439Z,39.57
2019-01-25T19:51:02.528Z,37.40
2019-01-25T19:54:09.319Z,43.83
2019-01-25T19:57:15.878Z,44.50
2019-01-25T20:00:28.614Z,43.97
2019-01-25T20:03:35.351Z,47.13
2019-01-25T20:06:42.279Z,52.83
2019-01-25T20:09:49.667Z,47.13
2019-01-25T20:12:57.966Z,61.87
2019-01-25T20:16:06.672Z,54.10
2019-01-25T20:19:13.781Z,59.67
2019-01-25T20:22:20.475Z,66.20
2019-01-25T20:25:29.478Z,64.70
2019-01-25T20:28:37.902Z,68.23
2019-01-25T20:31:45.874Z,65.93
2019-01-25T20:34:52.491Z,64.33
2019-01-25T20:38:01.744Z,65.53
2019-01-25T20:41:09.455Z,79.40
2019-01-25T20:44:16.300Z,87.57
2019-01-25T20:47:23.059Z,64.83
2019-01-25T20:50:31.756Z,69.23
2019-01-25T20:53:38.407Z,62.70
2019-01-25T20:56:45.229Z,63.73
2019-01-25T20:59:51.973Z,53.37
2019-01-25T21:02:58.708Z,57.90
2019-01-25T21:06:05.651Z,44.90
2019-01-25T21:09:13.086Z,49.53
2019-01-25T21:12:20.262Z,54.90
2019-01-25T21:15:34.813Z,47.77
2019-01-25T21:18:36.262Z,35.60
2019-01-25T21:21:43.688Z,46.90
2019-01-25T21:24:50.922Z,35.67
2019-01-25T21:27:57.777Z,46.33
2019-01-25T21:31:04.130Z,42.33
2019-01-25T21:34:11.286Z,38.90
2019-01-25T21:37:18.247Z,31.80
2019-01-25T21:40:27.031Z,27.60
2019-01-25T21:43:33.523Z,21.73
2019-01-25T21:46:40.908Z,24.03
2019-01-25T21:49:48.042Z,24.13
2019-01-25T21:52:54.590Z,22.50
2019-01-25T21:56:01.066Z,24.37
2019-01-25T21:59:08.373Z,21.97
2019-01-25T22:02:14.925Z,22.40
2019-01-25T22:05:22.254Z,17.73
2019-01-25T22:08:29.297Z,20.23
2019-01-25T22:11:37.568Z,19.77
2019-01-25T22:14:45.378Z,19.70
2019-01-25T22:17:52.534Z,21.50
2019-01-25T22:20:59.249Z,20.90
2019-01-25T22:24:06.551Z,14.20
2019-01-25T22:27:15.225Z,17.20
2019-01-25T22:30:23.171Z,18.73
2019-01-25T22:33:29.848Z,17.10
2019-01-25T22:36:40.420Z,19.43
2019-01-25T22:39:48.449Z,17.13
2019-01-25T22:42:55.965Z,20.40
2019-01-25T22:46:02.858Z,22.23
2019-01-25T22:49:10.234Z,22.10
2019-01-25T22:52:16.847Z,22.13
2019-01-25T22:55:30.114Z,23.90
2019-01-25T22:58:36.915Z,19.23
2019-01-25T23:01:44.013Z,22.73
2019-01-25T23:05:25.137Z,25.30
2019-01-25T23:08:31.768Z,23.13
2019-01-25T23:11:39.216Z,21.67
2019-01-25T23:14:46.221Z,26.73
2019-01-25T23:17:52.739Z,24.90
2019-01-25T23:20:59.547Z,24.40
2019-01-25T23:24:06.333Z,22.47
2019-01-25T23:27:14.184Z,21.73
2019-01-25T23:30:20.675Z,22.57
2019-01-25T23:33:28.145Z,26.10
2019-01-25T23:36:36.186Z,22.93
2019-01-25T23:39:42.492Z,24.10
2019-01-25T23:42:49.027Z,22.70
2019-01-25T23:45:55.838Z,20.10
2019-01-25T23:49:02.423Z,23.10
2019-01-25T23:52:09.325Z,23.07
2019-01-25T23:55:16.204Z,21.67
2019-01-25T23:58:23.534Z,27.00
